Terminal Aerodrome Forecast
Issued by NWS

Home | Current Version | Previous Version | Text Only | Print | Product List | Glossary On
Versions: 1 2 3 4 5 6 7 8 9 10 11 12 13 14 15 16 17 18 19 20 21 22 23 24 25 26
000
FTUS41 KOKX 211100
TAFGON
TAF
KGON 211130Z 2112/2212 01005KT 2SM -SN BR SCT010 OVC015
     FM211400 02007KT P6SM SCT015 OVC025
     FM211800 02005KT P6SM SCT025 BKN035
     FM220000 03004KT 6SM BR BKN015=

USA.gov is the U.S. government's official web portal to all federal, state and local government web resources and services.